createdAt,value
2023-03-14T00:01:16.556Z,14.40
2023-03-14T00:03:46.338Z,14.40
2023-03-14T00:06:15.633Z,14.40
2023-03-14T00:08:45.731Z,14.40
2023-03-14T00:11:17.019Z,14.40
2023-03-14T00:13:45.595Z,14.40
2023-03-14T00:16:14.972Z,14.40
2023-03-14T00:18:43.350Z,14.40
2023-03-14T00:21:14.013Z,14.40
2023-03-14T00:23:44.404Z,14.40
2023-03-14T00:26:15.600Z,14.40
2023-03-14T00:28:45.511Z,14.40
2023-03-14T00:31:16.273Z,14.40
2023-03-14T00:33:46.090Z,14.40
2023-03-14T00:36:18.105Z,14.40
2023-03-14T00:38:49.745Z,14.40
2023-03-14T00:41:20.923Z,14.30
2023-03-14T00:43:49.228Z,14.30
2023-03-14T00:46:17.892Z,14.30
2023-03-14T00:48:47.394Z,14.30
2023-03-14T00:51:17.737Z,14.30
2023-03-14T00:53:46.714Z,14.30
2023-03-14T00:56:15.665Z,14.30
2023-03-14T00:58:44.329Z,14.30
2023-03-14T01:01:16.731Z,14.40
2023-03-14T01:03:45.253Z,14.30
2023-03-14T01:06:17.845Z,14.30
2023-03-14T01:08:47.189Z,14.30
2023-03-14T01:11:18.862Z,14.30
2023-03-14T01:13:47.407Z,14.30
2023-03-14T01:16:17.225Z,14.30
2023-03-14T01:18:47.332Z,14.30
2023-03-14T01:21:20.131Z,14.30
2023-03-14T01:23:50.373Z,14.30
2023-03-14T01:26:21.911Z,14.30
2023-03-14T01:28:52.613Z,14.30
2023-03-14T01:31:21.260Z,14.30
2023-03-14T01:33:49.863Z,14.30
2023-03-14T01:36:34.097Z,14.30
2023-03-14T01:39:04.250Z,14.30
2023-03-14T01:41:32.691Z,14.30
2023-03-14T01:44:02.106Z,14.30
2023-03-14T01:46:40.454Z,14.30
2023-03-14T01:49:21.077Z,14.30
2023-03-14T01:52:03.018Z,14.30
2023-03-14T01:54:36.723Z,14.30
2023-03-14T01:57:12.714Z,14.30
2023-03-14T01:59:47.060Z,14.30
2023-03-14T02:02:17.782Z,14.30
2023-03-14T02:04:47.146Z,14.30
2023-03-14T02:07:24.865Z,14.30
2023-03-14T02:10:10.372Z,14.30
2023-03-14T02:12:39.823Z,14.30
2023-03-14T02:15:21.972Z,14.30
2023-03-14T02:18:08.576Z,14.30
2023-03-14T02:21:08.046Z,14.30
2023-03-14T02:23:44.137Z,14.30
2023-03-14T02:26:17.718Z,14.30
2023-03-14T02:28:47.707Z,14.30
2023-03-14T02:31:16.968Z,14.30
2023-03-14T02:33:45.445Z,14.30
2023-03-14T02:36:16.749Z,14.30
2023-03-14T02:38:54.410Z,14.30
2023-03-14T02:41:23.866Z,14.30
2023-03-14T02:44:02.501Z,14.30
2023-03-14T02:46:31.086Z,14.30
2023-03-14T02:49:04.316Z,14.30
2023-03-14T02:51:37.173Z,14.30
2023-03-14T02:54:08.395Z,14.30
2023-03-14T02:56:38.166Z,14.30
2023-03-14T02:59:08.962Z,14.30
2023-03-14T03:01:44.396Z,14.30
2023-03-14T03:04:12.786Z,14.30
2023-03-14T03:06:41.137Z,14.30
2023-03-14T03:09:09.921Z,14.30
2023-03-14T03:11:38.227Z,14.30
2023-03-14T03:14:09.268Z,14.20
2023-03-14T03:16:37.634Z,14.20
2023-03-14T03:19:06.197Z,14.20
2023-03-14T03:21:34.645Z,14.20
2023-03-14T03:24:03.049Z,14.20
2023-03-14T03:26:31.347Z,14.20
2023-03-14T03:28:59.855Z,14.20
2023-03-14T03:31:30.543Z,14.20
2023-03-14T03:33:59.378Z,14.20
2023-03-14T03:36:29.599Z,14.20
2023-03-14T03:39:01.159Z,14.20
2023-03-14T03:41:29.599Z,14.10
2023-03-14T03:43:58.284Z,14.20
2023-03-14T03:46:28.998Z,14.10
2023-03-14T03:48:58.064Z,14.10
2023-03-14T03:51:28.682Z,14.10
2023-03-14T03:53:58.949Z,14.10
2023-03-14T03:56:32.554Z,14.10
2023-03-14T03:59:01.925Z,14.10
2023-03-14T04:01:31.601Z,14.10
2023-03-14T04:04:01.813Z,14.10
2023-03-14T04:06:31.173Z,14.10
2023-03-14T04:09:01.849Z,14.10
2023-03-14T04:11:51.830Z,14.00
2023-03-14T04:14:23.417Z,14.00
2023-03-14T04:17:03.039Z,14.00
2023-03-14T04:19:32.098Z,14.00
2023-03-14T04:22:00.650Z,14.00
2023-03-14T04:24:34.851Z,14.00
2023-03-14T04:27:03.246Z,14.00
2023-03-14T04:29:32.515Z,14.00
2023-03-14T04:32:03.017Z,14.00
2023-03-14T04:34:31.499Z,14.00
2023-03-14T04:37:00.121Z,14.00
2023-03-14T04:39:37.356Z,14.00
2023-03-14T04:42:19.332Z,14.00
2023-03-14T04:44:50.457Z,14.00
2023-03-14T04:47:22.320Z,14.00
2023-03-14T04:49:52.418Z,14.00
2023-03-14T04:52:21.372Z,14.00
2023-03-14T04:54:49.828Z,14.00
2023-03-14T04:57:20.018Z,14.00
2023-03-14T04:59:49.643Z,14.00
2023-03-14T05:02:45.952Z,14.00
2023-03-14T05:05:35.167Z,14.00
2023-03-14T05:08:23.227Z,14.00
2023-03-14T05:11:06.338Z,14.00
2023-03-14T05:13:53.924Z,14.00
2023-03-14T05:16:36.253Z,14.00
2023-03-14T05:19:24.842Z,14.00
2023-03-14T05:22:12.305Z,14.00
2023-03-14T05:25:03.889Z,13.90
2023-03-14T05:28:12.981Z,13.90
2023-03-14T05:30:57.426Z,13.90
2023-03-14T05:33:44.443Z,13.90
2023-03-14T05:36:38.499Z,13.90
2023-03-14T05:39:33.038Z,13.90
2023-03-14T05:42:12.169Z,13.90
2023-03-14T05:45:10.479Z,13.90
2023-03-14T05:48:08.437Z,13.90
2023-03-14T05:50:57.685Z,13.90
2023-03-14T05:53:40.275Z,13.90
2023-03-14T05:56:26.809Z,13.80
2023-03-14T05:59:10.987Z,13.90
2023-03-14T06:02:08.762Z,13.90
2023-03-14T06:04:48.145Z,13.90
2023-03-14T06:07:17.433Z,13.80
2023-03-14T06:09:47.895Z,13.80
2023-03-14T06:12:20.230Z,13.80
2023-03-14T06:14:48.990Z,13.80
2023-03-14T06:17:19.940Z,13.80
2023-03-14T06:19:57.315Z,13.80
2023-03-14T06:22:27.024Z,13.80
2023-03-14T06:24:57.836Z,13.80
2023-03-14T06:27:27.969Z,13.80
2023-03-14T06:29:58.478Z,13.80
2023-03-14T06:32:28.209Z,13.80
2023-03-14T06:35:02.059Z,13.80
2023-03-14T06:37:32.504Z,13.80
2023-03-14T06:40:02.371Z,13.80
2023-03-14T06:43:06.366Z,13.80
2023-03-14T06:45:36.167Z,13.90
2023-03-14T06:48:05.985Z,13.90
2023-03-14T06:50:53.956Z,13.90
2023-03-14T06:53:24.338Z,13.80
2023-03-14T06:55:54.865Z,13.90
2023-03-14T06:58:23.973Z,13.90
2023-03-14T07:00:52.400Z,13.90
2023-03-14T07:03:25.805Z,13.90
2023-03-14T07:05:57.188Z,13.90
2023-03-14T07:08:25.717Z,13.90
2023-03-14T07:10:58.236Z,13.90
2023-03-14T07:13:27.158Z,13.90
2023-03-14T07:16:01.738Z,13.80
2023-03-14T07:18:30.646Z,13.90
2023-03-14T07:20:59.031Z,13.90
2023-03-14T07:23:27.531Z,13.80
2023-03-14T07:25:57.734Z,13.80
2023-03-14T07:28:28.732Z,13.80
2023-03-14T07:31:06.433Z,13.90
2023-03-14T07:33:35.223Z,13.90
2023-03-14T07:36:05.072Z,13.90
2023-03-14T07:38:33.963Z,13.90
2023-03-14T07:41:22.255Z,13.90
2023-03-14T07:44:09.318Z,13.80
2023-03-14T07:46:37.820Z,13.80
2023-03-14T07:49:06.214Z,13.90
2023-03-14T07:51:34.605Z,13.90
2023-03-14T07:54:03.145Z,13.90
2023-03-14T07:56:32.855Z,13.90
2023-03-14T07:59:01.291Z,13.90
2023-03-14T08:01:29.748Z,13.90
2023-03-14T08:03:58.181Z,13.80
2023-03-14T08:06:26.658Z,13.90
2023-03-14T08:08:55.022Z,13.90
2023-03-14T08:11:23.483Z,13.90
2023-03-14T08:13:53.342Z,13.90
2023-03-14T08:16:22.478Z,13.90
2023-03-14T08:18:50.913Z,13.90
2023-03-14T08:21:19.399Z,13.90
2023-03-14T08:23:47.767Z,13.90
2023-03-14T08:26:16.273Z,13.90
2023-03-14T08:28:44.626Z,13.90
2023-03-14T08:31:15.648Z,13.90
2023-03-14T08:33:44.118Z,13.90
2023-03-14T08:36:13.079Z,13.90
2023-03-14T08:38:43.475Z,13.90
2023-03-14T08:41:12.686Z,14.00
2023-03-14T08:43:41.058Z,14.00
2023-03-14T08:46:09.522Z,14.00
2023-03-14T08:48:39.287Z,14.00
2023-03-14T08:51:10.152Z,14.00
2023-03-14T08:53:38.648Z,14.00
2023-03-14T08:56:10.858Z,14.00
2023-03-14T08:58:39.852Z,14.10
2023-03-14T09:01:10.662Z,14.10
2023-03-14T09:03:40.773Z,14.20
2023-03-14T09:06:11.823Z,14.20
2023-03-14T09:08:40.182Z,14.20
2023-03-14T09:11:10.698Z,14.30
2023-03-14T09:13:39.457Z,14.30
2023-03-14T09:16:09.657Z,14.40
2023-03-14T09:18:39.475Z,14.40
2023-03-14T09:21:08.801Z,14.40
2023-03-14T09:23:37.178Z,14.40
2023-03-14T09:26:05.726Z,14.50
2023-03-14T09:28:34.140Z,14.50
2023-03-14T09:31:09.079Z,14.50
2023-03-14T09:33:39.143Z,14.50
2023-03-14T09:36:09.458Z,14.60
2023-03-14T09:38:38.008Z,14.60
2023-03-14T09:41:18.355Z,14.60
2023-03-14T09:43:51.941Z,14.60
2023-03-14T09:46:20.949Z,14.70
2023-03-14T09:48:50.704Z,14.70
2023-03-14T09:51:22.721Z,14.70
2023-03-14T09:53:52.726Z,14.70
2023-03-14T09:56:25.089Z,14.70
2023-03-14T09:58:57.944Z,14.80
2023-03-14T10:01:32.392Z,14.80
2023-03-14T10:04:09.073Z,14.80
2023-03-14T10:06:37.470Z,14.80
2023-03-14T10:09:06.750Z,14.90
2023-03-14T10:11:35.182Z,14.90
2023-03-14T10:14:09.646Z,14.90
2023-03-14T10:16:42.739Z,14.90
2023-03-14T10:19:16.349Z,14.90
2023-03-14T10:21:46.380Z,14.90
2023-03-14T10:24:23.683Z,14.80
2023-03-14T10:26:55.814Z,14.80
2023-03-14T10:29:24.325Z,14.80
2023-03-14T10:31:56.318Z,14.80
2023-03-14T10:34:29.217Z,14.80
2023-03-14T10:37:00.603Z,14.80
2023-03-14T10:39:44.857Z,14.80
2023-03-14T10:42:22.327Z,14.80
2023-03-14T10:44:57.437Z,14.80
2023-03-14T10:47:29.322Z,14.80
2023-03-14T10:49:59.537Z,14.70
2023-03-14T10:52:31.572Z,14.70
2023-03-14T10:55:13.935Z,14.70
2023-03-14T10:57:42.838Z,14.70
2023-03-14T11:00:19.020Z,14.70
2023-03-14T11:03:11.286Z,14.60
2023-03-14T11:05:46.265Z,14.70
2023-03-14T11:08:23.717Z,14.60
2023-03-14T11:10:57.235Z,14.60
2023-03-14T11:13:29.060Z,14.60
2023-03-14T11:16:05.020Z,14.60
2023-03-14T11:19:23.486Z,14.50
2023-03-14T11:21:59.601Z,14.50
2023-03-14T11:25:00.717Z,14.50
2023-03-14T11:27:45.663Z,14.50
2023-03-14T11:30:22.125Z,14.40
2023-03-14T11:32:58.776Z,14.40
2023-03-14T11:35:33.192Z,14.40
2023-03-14T11:38:18.108Z,14.40
2023-03-14T11:40:49.158Z,14.30
2023-03-14T11:43:23.096Z,14.30
2023-03-14T11:45:53.470Z,14.30
2023-03-14T11:48:33.359Z,14.20
2023-03-14T11:51:04.582Z,14.20
2023-03-14T11:53:50.717Z,14.20
2023-03-14T11:56:27.837Z,14.20
2023-03-14T11:59:02.888Z,14.20
2023-03-14T12:01:47.372Z,14.20
2023-03-14T12:04:25.519Z,14.10
2023-03-14T12:06:53.973Z,14.10
2023-03-14T12:09:24.646Z,14.10
2023-03-14T12:11:57.749Z,14.10
2023-03-14T12:14:28.810Z,14.10
2023-03-14T12:16:59.818Z,14.00
2023-03-14T12:19:40.384Z,14.00
2023-03-14T12:22:28.841Z,14.00
2023-03-14T12:25:06.856Z,14.00
2023-03-14T12:28:02.543Z,14.00
2023-03-14T12:30:35.330Z,14.00
2023-03-14T12:33:29.082Z,14.00
2023-03-14T12:36:33.362Z,13.90
2023-03-14T12:39:15.779Z,13.90
2023-03-14T12:41:50.601Z,13.80
2023-03-14T12:44:43.934Z,13.80
2023-03-14T12:47:54.382Z,13.80
2023-03-14T12:50:38.316Z,13.80
2023-03-14T12:53:51.141Z,13.80
2023-03-14T12:57:01.764Z,13.80
2023-03-14T12:59:35.928Z,13.80
2023-03-14T13:02:24.379Z,13.70
2023-03-14T13:05:01.943Z,13.70
2023-03-14T13:07:37.884Z,13.70
2023-03-14T13:10:21.193Z,13.70
2023-03-14T13:12:58.298Z,13.70
2023-03-14T13:15:32.359Z,13.60
2023-03-14T13:18:05.925Z,13.60
2023-03-14T13:20:37.974Z,13.60
2023-03-14T13:23:06.524Z,13.60
2023-03-14T13:25:37.521Z,13.60
2023-03-14T13:28:08.263Z,13.60
2023-03-14T13:30:43.093Z,13.60
2023-03-14T13:33:17.081Z,13.60
2023-03-14T13:35:49.201Z,13.60
2023-03-14T13:38:23.852Z,13.50
2023-03-14T13:40:54.088Z,13.50
2023-03-14T13:43:32.030Z,13.50
2023-03-14T13:46:06.967Z,13.40
2023-03-14T13:48:44.002Z,13.40
2023-03-14T13:51:15.646Z,13.40
2023-03-14T13:53:47.965Z,13.40
2023-03-14T13:56:16.466Z,13.30
2023-03-14T13:58:46.434Z,13.40
2023-03-14T14:01:18.986Z,13.30
2023-03-14T14:03:52.593Z,13.30
2023-03-14T14:06:33.731Z,13.30
2023-03-14T14:09:05.717Z,13.30
2023-03-14T14:11:50.977Z,13.30
2023-03-14T14:14:29.539Z,13.20
2023-03-14T14:16:59.516Z,13.20
2023-03-14T14:19:31.938Z,13.10
2023-03-14T14:22:00.797Z,13.10
2023-03-14T14:24:33.414Z,13.10
2023-03-14T14:27:04.360Z,13.00
2023-03-14T14:29:35.610Z,13.10
2023-03-14T14:32:10.678Z,13.00
2023-03-14T14:34:50.324Z,13.00
2023-03-14T14:37:27.650Z,13.00
2023-03-14T14:39:59.774Z,13.00
2023-03-14T14:42:31.960Z,13.00
2023-03-14T14:45:04.900Z,13.00
2023-03-14T14:47:33.538Z,13.00
2023-03-14T14:50:06.858Z,13.00
2023-03-14T14:52:42.595Z,13.00
2023-03-14T14:55:18.399Z,13.00
2023-03-14T14:57:53.433Z,13.00
2023-03-14T15:00:25.557Z,12.90
2023-03-14T15:02:56.657Z,12.90
2023-03-14T15:05:27.528Z,13.00
2023-03-14T15:07:56.350Z,13.00
2023-03-14T15:10:27.301Z,12.90
2023-03-14T15:12:55.737Z,12.90
2023-03-14T15:15:25.409Z,12.90
2023-03-14T15:17:53.734Z,12.80
2023-03-14T15:20:24.699Z,12.80
2023-03-14T15:22:53.373Z,12.80
2023-03-14T15:25:47.296Z,12.80
2023-03-14T15:28:20.836Z,13.00
2023-03-14T15:30:57.587Z,12.80
2023-03-14T15:33:27.812Z,12.80
2023-03-14T15:35:57.965Z,12.80
2023-03-14T15:38:26.376Z,12.80
2023-03-14T15:40:55.289Z,12.90
2023-03-14T15:43:23.738Z,12.80
2023-03-14T15:45:53.502Z,12.80
2023-03-14T15:48:23.604Z,12.80
2023-03-14T15:50:52.098Z,12.80
2023-03-14T15:53:20.638Z,12.80
2023-03-14T15:55:49.026Z,12.80
2023-03-14T15:58:21.971Z,12.80
2023-03-14T16:00:52.652Z,12.80
2023-03-14T16:03:21.220Z,12.70
2023-03-14T16:05:49.727Z,12.80
2023-03-14T16:08:18.592Z,12.80
2023-03-14T16:10:48.192Z,12.70
2023-03-14T16:13:17.135Z,12.80
2023-03-14T16:15:56.729Z,12.80
2023-03-14T16:18:25.242Z,12.70
2023-03-14T16:21:01.759Z,12.80
2023-03-14T16:23:32.149Z,12.80
2023-03-14T16:26:01.116Z,12.80
2023-03-14T16:28:29.561Z,12.80
2023-03-14T16:31:03.697Z,12.80
2023-03-14T16:33:32.310Z,12.80
2023-03-14T16:36:06.172Z,12.80
2023-03-14T16:38:35.320Z,12.90
2023-03-14T16:41:06.920Z,12.90
2023-03-14T16:43:37.246Z,12.90
2023-03-14T16:46:09.940Z,12.90
2023-03-14T16:48:38.555Z,12.90
2023-03-14T16:51:07.481Z,12.90
2023-03-14T16:53:35.832Z,12.90
2023-03-14T16:56:04.363Z,13.00
2023-03-14T16:58:32.717Z,13.00
2023-03-14T17:01:10.492Z,12.90
2023-03-14T17:03:42.513Z,12.90
2023-03-14T17:06:12.905Z,12.90
2023-03-14T17:08:41.360Z,12.90
2023-03-14T17:11:10.165Z,12.90
2023-03-14T17:13:39.478Z,12.90
2023-03-14T17:16:08.943Z,12.90
2023-03-14T17:18:39.845Z,12.80
2023-03-14T17:21:08.506Z,13.00
2023-03-14T17:23:37.544Z,12.80
2023-03-14T17:26:06.313Z,12.80
2023-03-14T17:28:34.800Z,12.80
2023-03-14T17:31:06.339Z,12.80
2023-03-14T17:33:35.324Z,12.70
2023-03-14T17:36:06.466Z,12.70
2023-03-14T17:38:36.678Z,12.70
2023-03-14T17:41:05.646Z,12.70
2023-03-14T17:43:34.020Z,12.70
2023-03-14T17:46:06.306Z,12.70
2023-03-14T17:48:34.854Z,12.70
2023-03-14T17:51:04.737Z,12.70
2023-03-14T17:53:33.437Z,12.60
2023-03-14T17:56:01.829Z,12.60
2023-03-14T17:58:32.518Z,12.60
2023-03-14T18:01:11.248Z,12.60
2023-03-14T18:03:40.169Z,12.50
2023-03-14T18:06:11.921Z,12.50
2023-03-14T18:08:42.435Z,12.50
2023-03-14T18:11:11.296Z,12.50
2023-03-14T18:13:39.936Z,12.40
2023-03-14T18:16:14.265Z,12.40
2023-03-14T18:18:43.115Z,12.30
2023-03-14T18:21:13.282Z,12.30
2023-03-14T18:23:41.734Z,12.30
2023-03-14T18:26:10.650Z,12.30
2023-03-14T18:28:39.014Z,12.40
2023-03-14T18:31:09.902Z,12.40
2023-03-14T18:33:40.330Z,12.20
2023-03-14T18:36:10.103Z,12.20
2023-03-14T18:38:43.276Z,12.20
2023-03-14T18:41:14.113Z,12.20
2023-03-14T18:43:42.907Z,12.20
2023-03-14T18:46:11.501Z,12.20
2023-03-14T18:48:42.370Z,12.30
2023-03-14T18:51:12.688Z,12.20
2023-03-14T18:53:43.158Z,12.10
2023-03-14T18:56:14.092Z,12.10
2023-03-14T18:58:43.523Z,12.10
2023-03-14T19:01:12.897Z,12.10
2023-03-14T19:03:42.218Z,12.00
2023-03-14T19:06:12.103Z,12.10
2023-03-14T19:08:43.211Z,12.00
2023-03-14T19:11:13.921Z,12.00
2023-03-14T19:13:42.965Z,11.90
2023-03-14T19:16:13.887Z,11.90
2023-03-14T19:18:43.004Z,11.90
2023-03-14T19:21:13.303Z,11.80
2023-03-14T19:23:46.548Z,12.00
2023-03-14T19:26:16.276Z,11.80
2023-03-14T19:28:44.658Z,11.80
2023-03-14T19:31:13.081Z,11.70
2023-03-14T19:33:42.533Z,11.70
2023-03-14T19:36:22.499Z,11.60
2023-03-14T19:38:53.302Z,11.60
2023-03-14T19:41:24.085Z,11.60
2023-03-14T19:43:53.278Z,11.70
2023-03-14T19:46:22.765Z,11.60
2023-03-14T19:48:54.417Z,11.40
2023-03-14T19:51:24.161Z,11.40
2023-03-14T19:53:54.250Z,11.40
2023-03-14T19:56:24.219Z,11.50
2023-03-14T19:58:53.424Z,11.30
2023-03-14T20:01:24.490Z,11.30
2023-03-14T20:03:53.412Z,11.40
2023-03-14T20:06:22.460Z,11.30
2023-03-14T20:08:50.994Z,11.40
2023-03-14T20:11:20.778Z,11.20
2023-03-14T20:13:49.181Z,11.20
2023-03-14T20:16:17.527Z,11.20
2023-03-14T20:18:46.376Z,11.20
2023-03-14T20:21:15.493Z,11.20
2023-03-14T20:23:44.355Z,11.20
2023-03-14T20:26:12.861Z,11.10
2023-03-14T20:28:44.860Z,11.20
2023-03-14T20:31:15.190Z,11.20
2023-03-14T20:33:43.681Z,11.20
2023-03-14T20:36:12.329Z,11.10
2023-03-14T20:38:40.734Z,11.10
2023-03-14T20:41:10.667Z,11.10
2023-03-14T20:43:39.347Z,11.10
2023-03-14T20:46:09.104Z,11.00
2023-03-14T20:48:39.132Z,11.00
2023-03-14T20:51:07.719Z,10.90
2023-03-14T20:53:36.042Z,10.80
2023-03-14T20:56:05.193Z,10.80
2023-03-14T20:58:33.793Z,10.70
2023-03-14T21:01:03.666Z,10.60
2023-03-14T21:03:33.337Z,10.50
2023-03-14T21:06:01.719Z,10.50
2023-03-14T21:08:30.034Z,10.40
2023-03-14T21:10:58.558Z,10.30
2023-03-14T21:13:26.986Z,10.20
2023-03-14T21:15:55.515Z,10.20
2023-03-14T21:18:24.365Z,10.20
2023-03-14T21:20:55.555Z,10.20
2023-03-14T21:23:26.525Z,10.10
2023-03-14T21:25:55.807Z,10.10
2023-03-14T21:28:24.200Z,10.30
2023-03-14T21:30:52.874Z,10.10
2023-03-14T21:33:21.399Z,10.10
2023-03-14T21:35:55.312Z,10.10
2023-03-14T21:38:23.668Z,10.10
2023-03-14T21:40:57.278Z,10.10
2023-03-14T21:43:25.876Z,10.10
2023-03-14T21:45:54.991Z,10.00
2023-03-14T21:48:23.918Z,10.20
2023-03-14T21:50:54.140Z,10.10
2023-03-14T21:53:22.448Z,10.20
2023-03-14T21:55:53.598Z,10.00
2023-03-14T21:58:21.919Z,10.00
2023-03-14T22:00:50.288Z,10.00
2023-03-14T22:03:20.406Z,9.90
2023-03-14T22:05:49.162Z,9.90
2023-03-14T22:08:22.629Z,9.90
2023-03-14T22:10:53.185Z,9.90
2023-03-14T22:13:23.278Z,9.80
2023-03-14T22:15:52.241Z,9.80
2023-03-14T22:18:21.028Z,9.90
2023-03-14T22:20:49.573Z,9.80
2023-03-14T22:23:19.310Z,9.80
2023-03-14T22:25:49.664Z,9.90
2023-03-14T22:28:18.808Z,9.80
2023-03-14T22:30:48.642Z,9.70
2023-03-14T22:33:17.491Z,9.90
2023-03-14T22:35:49.788Z,9.70
2023-03-14T22:38:19.925Z,9.70
2023-03-14T22:40:48.695Z,9.70
2023-03-14T22:43:17.088Z,9.70
2023-03-14T22:45:46.055Z,9.70
2023-03-14T22:48:15.229Z,9.80
2023-03-14T22:50:43.702Z,9.60
2023-03-14T22:53:12.007Z,9.60
2023-03-14T22:55:41.804Z,9.60
2023-03-14T22:58:10.254Z,9.70
2023-03-14T23:00:39.539Z,9.60
2023-03-14T23:03:07.956Z,9.60
2023-03-14T23:05:36.386Z,9.80
2023-03-14T23:08:04.685Z,9.70
2023-03-14T23:10:33.955Z,9.60
2023-03-14T23:13:05.647Z,9.60
2023-03-14T23:15:35.129Z,9.60
2023-03-14T23:18:03.545Z,9.70
2023-03-14T23:20:31.953Z,9.60
2023-03-14T23:23:00.255Z,9.60
2023-03-14T23:25:30.088Z,9.50
2023-03-14T23:28:00.014Z,9.50
2023-03-14T23:30:29.952Z,9.60
2023-03-14T23:32:58.321Z,9.50
2023-03-14T23:35:26.680Z,9.60
2023-03-14T23:37:54.987Z,9.50
2023-03-14T23:40:23.414Z,9.50
2023-03-14T23:42:51.766Z,9.50
2023-03-14T23:45:20.092Z,9.50
2023-03-14T23:47:49.749Z,9.40
2023-03-14T23:50:18.459Z,9.40
2023-03-14T23:52:46.777Z,9.40
2023-03-14T23:55:15.098Z,9.60
2023-03-14T23:57:43.438Z,9.60
